sensor_id;sensor_type;location;lat;lon;timestamp;P1;P2;P0
12542;PMS3003;6337;49.556;25.594;2024-01-30T00:04:17;39.58;18.38;
12542;PMS3003;6337;49.556;25.594;2024-01-30T00:16:05;36.92;18.55;
12542;PMS3003;6337;49.556;25.594;2024-01-30T00:18:35;41.85;20.52;
12542;PMS3003;6337;49.556;25.594;2024-01-30T00:21:16;33.13;17.33;
12542;PMS3003;6337;49.556;25.594;2024-01-30T00:26:23;42.25;21.33;
12542;PMS3003;6337;49.556;25.594;2024-01-30T00:28:53;49.95;19.70;
12542;PMS3003;6337;49.556;25.594;2024-01-30T00:31:33;80.47;33.25;
12542;PMS3003;6337;49.556;25.594;2024-01-30T00:36:29;49.08;24.42;
12542;PMS3003;6337;49.556;25.594;2024-01-30T00:39:08;54.92;28.42;
12542;PMS3003;6337;49.556;25.594;2024-01-30T00:42:23;53.58;26.10;
12542;PMS3003;6337;49.556;25.594;2024-01-30T00:44:53;48.67;22.65;
12542;PMS3003;6337;49.556;25.594;2024-01-30T00:47:22;59.13;24.35;
12542;PMS3003;6337;49.556;25.594;2024-01-30T00:49:50;58.33;26.20;
12542;PMS3003;6337;49.556;25.594;2024-01-30T00:52:18;71.72;28.00;
12542;PMS3003;6337;49.556;25.594;2024-01-30T00:54:45;41.45;21.45;
12542;PMS3003;6337;49.556;25.594;2024-01-30T00:57:13;36.80;18.30;
12542;PMS3003;6337;49.556;25.594;2024-01-30T00:59:41;62.72;25.10;
12542;PMS3003;6337;49.556;25.594;2024-01-30T01:07:51;41.42;19.30;
12542;PMS3003;6337;49.556;25.594;2024-01-30T01:10:24;46.85;23.45;
12542;PMS3003;6337;49.556;25.594;2024-01-30T01:12:53;53.92;24.40;
12542;PMS3003;6337;49.556;25.594;2024-01-30T01:15:25;31.02;17.20;
12542;PMS3003;6337;49.556;25.594;2024-01-30T01:17:55;40.45;18.70;
12542;PMS3003;6337;49.556;25.594;2024-01-30T01:20:25;42.42;19.60;
12542;PMS3003;6337;49.556;25.594;2024-01-30T01:22:53;49.67;20.25;
12542;PMS3003;6337;49.556;25.594;2024-01-30T01:28:06;38.75;20.05;
12542;PMS3003;6337;49.556;25.594;2024-01-30T01:30:33;45.20;24.73;
12542;PMS3003;6337;49.556;25.594;2024-01-30T01:33:02;31.38;17.30;
12542;PMS3003;6337;49.556;25.594;2024-01-30T01:35:31;31.67;17.55;
12542;PMS3003;6337;49.556;25.594;2024-01-30T01:38:12;39.25;19.13;
12542;PMS3003;6337;49.556;25.594;2024-01-30T01:40:41;43.70;22.05;
12542;PMS3003;6337;49.556;25.594;2024-01-30T01:43:22;41.05;19.77;
12542;PMS3003;6337;49.556;25.594;2024-01-30T01:46:00;33.40;17.25;
12542;PMS3003;6337;49.556;25.594;2024-01-30T01:48:29;35.03;16.95;
12542;PMS3003;6337;49.556;25.594;2024-01-30T01:50:56;38.30;19.20;
12542;PMS3003;6337;49.556;25.594;2024-01-30T01:53:26;37.92;18.25;
12542;PMS3003;6337;49.556;25.594;2024-01-30T01:55:54;52.38;20.42;
12542;PMS3003;6337;49.556;25.594;2024-01-30T01:58:44;51.63;18.52;
12542;PMS3003;6337;49.556;25.594;2024-01-30T02:01:13;44.28;20.70;
12542;PMS3003;6337;49.556;25.594;2024-01-30T02:07:00;44.28;22.05;
12542;PMS3003;6337;49.556;25.594;2024-01-30T02:09:43;39.25;19.90;
12542;PMS3003;6337;49.556;25.594;2024-01-30T02:14:44;46.83;19.10;
12542;PMS3003;6337;49.556;25.594;2024-01-30T02:17:13;35.58;19.42;
12542;PMS3003;6337;49.556;25.594;2024-01-30T02:19:42;56.30;19.92;
12542;PMS3003;6337;49.556;25.594;2024-01-30T02:22:25;39.88;18.98;
12542;PMS3003;6337;49.556;25.594;2024-01-30T02:24:54;44.97;19.65;
12542;PMS3003;6337;49.556;25.594;2024-01-30T02:27:22;55.42;26.73;
12542;PMS3003;6337;49.556;25.594;2024-01-30T02:29:51;44.88;22.38;
12542;PMS3003;6337;49.556;25.594;2024-01-30T02:32:21;55.20;24.27;
12542;PMS3003;6337;49.556;25.594;2024-01-30T02:35:03;62.78;25.75;
12542;PMS3003;6337;49.556;25.594;2024-01-30T02:37:40;42.95;20.55;
12542;PMS3003;6337;49.556;25.594;2024-01-30T02:40:10;48.50;24.08;
12542;PMS3003;6337;49.556;25.594;2024-01-30T02:43:09;59.92;24.67;
12542;PMS3003;6337;49.556;25.594;2024-01-30T02:45:42;51.20;23.63;
12542;PMS3003;6337;49.556;25.594;2024-01-30T02:48:19;41.40;20.17;
12542;PMS3003;6337;49.556;25.594;2024-01-30T02:51:00;38.55;19.17;
12542;PMS3003;6337;49.556;25.594;2024-01-30T02:53:32;43.17;20.35;
12542;PMS3003;6337;49.556;25.594;2024-01-30T02:56:28;42.83;19.20;
12542;PMS3003;6337;49.556;25.594;2024-01-30T02:59:34;45.53;18.88;
12542;PMS3003;6337;49.556;25.594;2024-01-30T03:02:39;36.38;15.82;
12542;PMS3003;6337;49.556;25.594;2024-01-30T03:05:21;26.70;15.70;
12542;PMS3003;6337;49.556;25.594;2024-01-30T03:07:58;32.08;16.25;
12542;PMS3003;6337;49.556;25.594;2024-01-30T03:13:30;27.73;15.73;
12542;PMS3003;6337;49.556;25.594;2024-01-30T03:16:27;36.25;17.77;
12542;PMS3003;6337;49.556;25.594;2024-01-30T03:18:57;32.28;16.25;
12542;PMS3003;6337;49.556;25.594;2024-01-30T03:21:27;32.83;17.35;
12542;PMS3003;6337;49.556;25.594;2024-01-30T03:24:03;39.22;19.30;
12542;PMS3003;6337;49.556;25.594;2024-01-30T03:26:46;34.53;18.92;
12542;PMS3003;6337;49.556;25.594;2024-01-30T03:29:33;43.30;18.15;
12542;PMS3003;6337;49.556;25.594;2024-01-30T03:32:18;35.05;17.23;
12542;PMS3003;6337;49.556;25.594;2024-01-30T03:34:46;45.38;18.52;
12542;PMS3003;6337;49.556;25.594;2024-01-30T03:39:46;45.55;21.15;
12542;PMS3003;6337;49.556;25.594;2024-01-30T03:42:28;38.45;20.13;
12542;PMS3003;6337;49.556;25.594;2024-01-30T03:45:12;44.97;20.35;
12542;PMS3003;6337;49.556;25.594;2024-01-30T03:47:53;39.25;18.35;
12542;PMS3003;6337;49.556;25.594;2024-01-30T03:50:23;43.17;20.27;
12542;PMS3003;6337;49.556;25.594;2024-01-30T03:52:52;30.30;17.48;
12542;PMS3003;6337;49.556;25.594;2024-01-30T03:55:20;41.20;19.40;
12542;PMS3003;6337;49.556;25.594;2024-01-30T04:00:24;39.67;18.48;
12542;PMS3003;6337;49.556;25.594;2024-01-30T04:02:53;25.30;14.45;
12542;PMS3003;6337;49.556;25.594;2024-01-30T04:10:40;38.65;18.88;
12542;PMS3003;6337;49.556;25.594;2024-01-30T04:13:12;54.13;25.33;
12542;PMS3003;6337;49.556;25.594;2024-01-30T04:15:54;51.78;21.65;
12542;PMS3003;6337;49.556;25.594;2024-01-30T04:18:24;47.40;18.55;
12542;PMS3003;6337;49.556;25.594;2024-01-30T04:21:05;39.63;17.45;
12542;PMS3003;6337;49.556;25.594;2024-01-30T04:23:33;53.75;24.23;
12542;PMS3003;6337;49.556;25.594;2024-01-30T04:26:02;47.50;19.75;
12542;PMS3003;6337;49.556;25.594;2024-01-30T04:28:29;56.95;27.40;
12542;PMS3003;6337;49.556;25.594;2024-01-30T04:30:59;57.55;26.15;
12542;PMS3003;6337;49.556;25.594;2024-01-30T04:33:44;55.92;23.33;
12542;PMS3003;6337;49.556;25.594;2024-01-30T04:36:17;51.08;23.85;
12542;PMS3003;6337;49.556;25.594;2024-01-30T04:38:44;101.78;28.77;
12542;PMS3003;6337;49.556;25.594;2024-01-30T04:41:23;63.83;24.50;
12542;PMS3003;6337;49.556;25.594;2024-01-30T04:46:46;57.65;20.95;
12542;PMS3003;6337;49.556;25.594;2024-01-30T04:49:14;46.85;19.35;
12542;PMS3003;6337;49.556;25.594;2024-01-30T04:59:39;27.77;14.90;
12542;PMS3003;6337;49.556;25.594;2024-01-30T05:02:13;49.47;20.98;
12542;PMS3003;6337;49.556;25.594;2024-01-30T05:07:25;42.17;19.02;
12542;PMS3003;6337;49.556;25.594;2024-01-30T05:10:18;48.33;19.90;
12542;PMS3003;6337;49.556;25.594;2024-01-30T05:18:36;38.42;15.50;
12542;PMS3003;6337;49.556;25.594;2024-01-30T05:21:04;56.97;21.67;
12542;PMS3003;6337;49.556;25.594;2024-01-30T05:23:38;46.78;20.92;
12542;PMS3003;6337;49.556;25.594;2024-01-30T05:26:09;42.60;18.63;
12542;PMS3003;6337;49.556;25.594;2024-01-30T05:28:45;101.85;21.65;
12542;PMS3003;6337;49.556;25.594;2024-01-30T05:31:27;62.45;19.80;
12542;PMS3003;6337;49.556;25.594;2024-01-30T05:40:43;60.83;22.13;
12542;PMS3003;6337;49.556;25.594;2024-01-30T05:43:11;64.10;19.48;
12542;PMS3003;6337;49.556;25.594;2024-01-30T05:45:53;31.30;17.45;
12542;PMS3003;6337;49.556;25.594;2024-01-30T05:48:21;61.47;21.45;
12542;PMS3003;6337;49.556;25.594;2024-01-30T05:50:50;60.78;27.10;
12542;PMS3003;6337;49.556;25.594;2024-01-30T05:56:16;47.92;18.77;
12542;PMS3003;6337;49.556;25.594;2024-01-30T05:58:44;42.75;19.02;
12542;PMS3003;6337;49.556;25.594;2024-01-30T06:01:17;43.42;19.45;
12542;PMS3003;6337;49.556;25.594;2024-01-30T06:03:48;75.93;24.75;
12542;PMS3003;6337;49.556;25.594;2024-01-30T06:06:16;46.45;18.98;
12542;PMS3003;6337;49.556;25.594;2024-01-30T06:08:44;53.03;19.70;
12542;PMS3003;6337;49.556;25.594;2024-01-30T06:11:14;63.78;22.65;
12542;PMS3003;6337;49.556;25.594;2024-01-30T06:16:10;78.43;24.13;
12542;PMS3003;6337;49.556;25.594;2024-01-30T06:18:37;86.95;25.23;
12542;PMS3003;6337;49.556;25.594;2024-01-30T06:21:05;80.22;21.15;
12542;PMS3003;6337;49.556;25.594;2024-01-30T06:23:46;126.70;25.40;
12542;PMS3003;6337;49.556;25.594;2024-01-30T06:26:19;59.85;22.02;
12542;PMS3003;6337;49.556;25.594;2024-01-30T06:45:25;82.70;20.90;
12542;PMS3003;6337;49.556;25.594;2024-01-30T06:48:18;43.03;17.70;
12542;PMS3003;6337;49.556;25.594;2024-01-30T06:50:48;53.20;20.02;
12542;PMS3003;6337;49.556;25.594;2024-01-30T06:53:34;51.10;19.55;
12542;PMS3003;6337;49.556;25.594;2024-01-30T06:58:45;50.58;19.45;
12542;PMS3003;6337;49.556;25.594;2024-01-30T07:03:42;47.13;22.80;
12542;PMS3003;6337;49.556;25.594;2024-01-30T07:06:09;63.78;24.27;
12542;PMS3003;6337;49.556;25.594;2024-01-30T07:08:37;64.95;28.02;
12542;PMS3003;6337;49.556;25.594;2024-01-30T07:11:04;98.20;26.27;
12542;PMS3003;6337;49.556;25.594;2024-01-30T07:13:32;87.80;23.77;
12542;PMS3003;6337;49.556;25.594;2024-01-30T07:16:00;49.40;19.75;
12542;PMS3003;6337;49.556;25.594;2024-01-30T07:18:43;42.80;17.83;
12542;PMS3003;6337;49.556;25.594;2024-01-30T07:21:12;68.38;19.38;
12542;PMS3003;6337;49.556;25.594;2024-01-30T07:23:41;72.80;22.10;
12542;PMS3003;6337;49.556;25.594;2024-01-30T07:26:14;95.28;21.88;
12542;PMS3003;6337;49.556;25.594;2024-01-30T07:28:48;42.90;16.67;
12542;PMS3003;6337;49.556;25.594;2024-01-30T07:31:17;35.15;16.75;
12542;PMS3003;6337;49.556;25.594;2024-01-30T07:33:58;27.65;15.25;
12542;PMS3003;6337;49.556;25.594;2024-01-30T07:36:27;35.00;16.45;
12542;PMS3003;6337;49.556;25.594;2024-01-30T07:39:09;80.40;20.80;
12542;PMS3003;6337;49.556;25.594;2024-01-30T07:41:39;42.63;19.33;
12542;PMS3003;6337;49.556;25.594;2024-01-30T07:44:09;76.93;19.10;
12542;PMS3003;6337;49.556;25.594;2024-01-30T07:46:54;67.05;19.77;
12542;PMS3003;6337;49.556;25.594;2024-01-30T07:49:49;50.90;18.00;
12542;PMS3003;6337;49.556;25.594;2024-01-30T07:52:29;75.68;21.27;
12542;PMS3003;6337;49.556;25.594;2024-01-30T07:55:10;59.60;20.92;
12542;PMS3003;6337;49.556;25.594;2024-01-30T07:58:19;43.90;17.08;
12542;PMS3003;6337;49.556;25.594;2024-01-30T08:14:58;37.47;17.02;
12542;PMS3003;6337;49.556;25.594;2024-01-30T08:41:04;49.88;20.85;
12542;PMS3003;6337;49.556;25.594;2024-01-30T08:43:31;62.15;24.77;
12542;PMS3003;6337;49.556;25.594;2024-01-30T08:46:09;43.97;21.17;
12542;PMS3003;6337;49.556;25.594;2024-01-30T08:48:39;31.13;17.35;
12542;PMS3003;6337;49.556;25.594;2024-01-30T08:58:53;39.83;17.92;
12542;PMS3003;6337;49.556;25.594;2024-01-30T09:01:24;58.15;22.83;
12542;PMS3003;6337;49.556;25.594;2024-01-30T09:03:54;50.00;22.67;
12542;PMS3003;6337;49.556;25.594;2024-01-30T09:06:26;90.05;30.40;
12542;PMS3003;6337;49.556;25.594;2024-01-30T09:08:58;73.13;24.85;
12542;PMS3003;6337;49.556;25.594;2024-01-30T09:11:29;60.33;22.92;
12542;PMS3003;6337;49.556;25.594;2024-01-30T09:14:07;55.00;21.63;
12542;PMS3003;6337;49.556;25.594;2024-01-30T09:16:37;61.72;22.00;
12542;PMS3003;6337;49.556;25.594;2024-01-30T09:19:05;75.05;27.25;
12542;PMS3003;6337;49.556;25.594;2024-01-30T09:21:33;86.53;35.38;
12542;PMS3003;6337;49.556;25.594;2024-01-30T09:24:17;69.05;25.60;
12542;PMS3003;6337;49.556;25.594;2024-01-30T09:26:45;50.47;24.35;
12542;PMS3003;6337;49.556;25.594;2024-01-30T09:29:24;68.68;27.63;
12542;PMS3003;6337;49.556;25.594;2024-01-30T09:31:54;59.05;25.55;
12542;PMS3003;6337;49.556;25.594;2024-01-30T09:34:22;78.22;29.25;
12542;PMS3003;6337;49.556;25.594;2024-01-30T09:36:51;65.53;26.98;
12542;PMS3003;6337;49.556;25.594;2024-01-30T09:39:25;59.10;23.75;
12542;PMS3003;6337;49.556;25.594;2024-01-30T09:41:54;53.72;24.70;
12542;PMS3003;6337;49.556;25.594;2024-01-30T09:44:25;48.08;22.15;
12542;PMS3003;6337;49.556;25.594;2024-01-30T09:46:57;62.00;28.92;
12542;PMS3003;6337;49.556;25.594;2024-01-30T09:49:36;55.53;25.15;
12542;PMS3003;6337;49.556;25.594;2024-01-30T09:52:05;50.88;22.58;
12542;PMS3003;6337;49.556;25.594;2024-01-30T09:54:33;49.08;21.95;
12542;PMS3003;6337;49.556;25.594;2024-01-30T09:59:56;45.47;20.33;
12542;PMS3003;6337;49.556;25.594;2024-01-30T10:02:23;61.13;25.35;
12542;PMS3003;6337;49.556;25.594;2024-01-30T10:05:07;62.88;25.70;
12542;PMS3003;6337;49.556;25.594;2024-01-30T10:07:54;44.90;18.52;
12542;PMS3003;6337;49.556;25.594;2024-01-30T10:13:43;43.55;18.65;
12542;PMS3003;6337;49.556;25.594;2024-01-30T10:16:33;50.78;24.42;
12542;PMS3003;6337;49.556;25.594;2024-01-30T10:19:07;65.28;28.90;
12542;PMS3003;6337;49.556;25.594;2024-01-30T10:21:42;55.28;24.88;
12542;PMS3003;6337;49.556;25.594;2024-01-30T10:24:11;58.47;24.02;
12542;PMS3003;6337;49.556;25.594;2024-01-30T10:26:47;54.83;27.60;
12542;PMS3003;6337;49.556;25.594;2024-01-30T10:29:16;54.38;23.77;
12542;PMS3003;6337;49.556;25.594;2024-01-30T10:35:11;50.55;25.48;
12542;PMS3003;6337;49.556;25.594;2024-01-30T10:37:38;45.10;23.17;
12542;PMS3003;6337;49.556;25.594;2024-01-30T10:40:13;69.03;30.00;
12542;PMS3003;6337;49.556;25.594;2024-01-30T10:42:47;50.63;27.13;
12542;PMS3003;6337;49.556;25.594;2024-01-30T10:45:37;55.20;21.58;
12542;PMS3003;6337;49.556;25.594;2024-01-30T10:48:08;51.92;23.85;
12542;PMS3003;6337;49.556;25.594;2024-01-30T10:50:38;33.45;19.77;
12542;PMS3003;6337;49.556;25.594;2024-01-30T10:53:14;45.85;19.13;
12542;PMS3003;6337;49.556;25.594;2024-01-30T10:55:43;44.30;20.25;
12542;PMS3003;6337;49.556;25.594;2024-01-30T10:58:14;41.20;20.33;
12542;PMS3003;6337;49.556;25.594;2024-01-30T11:00:43;47.42;24.02;
12542;PMS3003;6337;49.556;25.594;2024-01-30T11:03:11;47.53;25.73;
12542;PMS3003;6337;49.556;25.594;2024-01-30T11:05:50;45.40;20.30;
12542;PMS3003;6337;49.556;25.594;2024-01-30T11:08:22;49.85;22.80;
12542;PMS3003;6337;49.556;25.594;2024-01-30T11:10:55;46.85;21.73;
12542;PMS3003;6337;49.556;25.594;2024-01-30T11:13:29;55.35;26.38;
12542;PMS3003;6337;49.556;25.594;2024-01-30T11:16:00;52.15;23.73;
12542;PMS3003;6337;49.556;25.594;2024-01-30T11:18:31;51.30;23.40;
12542;PMS3003;6337;49.556;25.594;2024-01-30T11:38:00;42.55;19.65;
12542;PMS3003;6337;49.556;25.594;2024-01-30T11:40:29;49.95;22.58;
12542;PMS3003;6337;49.556;25.594;2024-01-30T11:42:58;54.85;24.58;
12542;PMS3003;6337;49.556;25.594;2024-01-30T11:45:28;46.42;23.08;
12542;PMS3003;6337;49.556;25.594;2024-01-30T11:47:58;49.85;21.45;
12542;PMS3003;6337;49.556;25.594;2024-01-30T11:50:28;44.70;23.38;
12542;PMS3003;6337;49.556;25.594;2024-01-30T11:52:57;59.58;26.58;
12542;PMS3003;6337;49.556;25.594;2024-01-30T11:55:36;69.03;30.55;
12542;PMS3003;6337;49.556;25.594;2024-01-30T11:58:04;61.00;27.83;
12542;PMS3003;6337;49.556;25.594;2024-01-30T12:00:33;78.78;33.42;
12542;PMS3003;6337;49.556;25.594;2024-01-30T12:06:14;46.78;20.33;
12542;PMS3003;6337;49.556;25.594;2024-01-30T12:09:13;47.25;22.40;
12542;PMS3003;6337;49.556;25.594;2024-01-30T12:11:48;41.83;20.48;
12542;PMS3003;6337;49.556;25.594;2024-01-30T12:14:53;81.05;30.75;
12542;PMS3003;6337;49.556;25.594;2024-01-30T12:17:23;86.25;34.70;
12542;PMS3003;6337;49.556;25.594;2024-01-30T12:22:22;60.95;26.27;
12542;PMS3003;6337;49.556;25.594;2024-01-30T15:29:53;125.95;50.20;
12542;PMS3003;6337;49.556;25.594;2024-01-30T15:32:36;72.30;36.03;
12542;PMS3003;6337;49.556;25.594;2024-01-30T15:35:17;84.60;35.55;
12542;PMS3003;6337;49.556;25.594;2024-01-30T15:38:01;56.75;27.58;
12542;PMS3003;6337;49.556;25.594;2024-01-30T15:52:29;116.25;52.63;
12542;PMS3003;6337;49.556;25.594;2024-01-30T15:55:00;87.75;44.22;
12542;PMS3003;6337;49.556;25.594;2024-01-30T16:10:04;94.68;45.28;
12542;PMS3003;6337;49.556;25.594;2024-01-30T16:12:46;88.78;43.08;
12542;PMS3003;6337;49.556;25.594;2024-01-30T16:15:28;80.85;41.88;
12542;PMS3003;6337;49.556;25.594;2024-01-30T16:20:44;99.65;44.70;
12542;PMS3003;6337;49.556;25.594;2024-01-30T16:30:01;84.28;39.90;
12542;PMS3003;6337;49.556;25.594;2024-01-30T16:33:19;73.90;39.97;
12542;PMS3003;6337;49.556;25.594;2024-01-30T16:36:05;84.95;42.47;
12542;PMS3003;6337;49.556;25.594;2024-01-30T16:42:34;86.85;44.80;
12542;PMS3003;6337;49.556;25.594;2024-01-30T16:45:30;88.20;45.97;
12542;PMS3003;6337;49.556;25.594;2024-01-30T16:48:38;77.82;43.17;
12542;PMS3003;6337;49.556;25.594;2024-01-30T17:14:24;110.97;56.60;
12542;PMS3003;6337;49.556;25.594;2024-01-30T17:57:08;75.88;41.60;
12542;PMS3003;6337;49.556;25.594;2024-01-30T17:59:36;94.47;46.30;
12542;PMS3003;6337;49.556;25.594;2024-01-30T18:02:16;94.10;47.78;
12542;PMS3003;6337;49.556;25.594;2024-01-30T18:04:57;102.53;48.80;
12542;PMS3003;6337;49.556;25.594;2024-01-30T18:07:26;85.13;43.30;
12542;PMS3003;6337;49.556;25.594;2024-01-30T18:10:01;88.05;44.75;
12542;PMS3003;6337;49.556;25.594;2024-01-30T18:16:03;85.30;42.00;
12542;PMS3003;6337;49.556;25.594;2024-01-30T18:19:03;87.00;46.00;
12542;PMS3003;6337;49.556;25.594;2024-01-30T18:21:52;100.03;48.78;
12542;PMS3003;6337;49.556;25.594;2024-01-30T18:25:36;87.00;44.35;
12542;PMS3003;6337;49.556;25.594;2024-01-30T18:28:31;81.90;42.78;
12542;PMS3003;6337;49.556;25.594;2024-01-30T18:43:18;132.82;55.17;
12542;PMS3003;6337;49.556;25.594;2024-01-30T18:45:50;148.02;58.17;
12542;PMS3003;6337;49.556;25.594;2024-01-30T18:48:39;114.80;51.35;
12542;PMS3003;6337;49.556;25.594;2024-01-30T18:51:13;103.45;47.92;
12542;PMS3003;6337;49.556;25.594;2024-01-30T18:53:46;82.65;43.67;
12542;PMS3003;6337;49.556;25.594;2024-01-30T18:56:15;84.25;42.22;
12542;PMS3003;6337;49.556;25.594;2024-01-30T19:08:10;102.00;47.55;
12542;PMS3003;6337;49.556;25.594;2024-01-30T19:10:43;94.13;45.63;
12542;PMS3003;6337;49.556;25.594;2024-01-30T19:13:18;97.82;48.47;
12542;PMS3003;6337;49.556;25.594;2024-01-30T20:10:02;90.63;43.55;
12542;PMS3003;6337;49.556;25.594;2024-01-30T20:12:30;89.90;45.00;
12542;PMS3003;6337;49.556;25.594;2024-01-30T20:15:12;71.10;36.30;
12542;PMS3003;6337;49.556;25.594;2024-01-30T20:17:53;83.03;39.50;
12542;PMS3003;6337;49.556;25.594;2024-01-30T20:20:22;72.03;37.10;
12542;PMS3003;6337;49.556;25.594;2024-01-30T20:23:05;76.63;37.08;
12542;PMS3003;6337;49.556;25.594;2024-01-30T20:25:39;82.38;41.90;
12542;PMS3003;6337;49.556;25.594;2024-01-30T20:33:28;106.80;50.15;
12542;PMS3003;6337;49.556;25.594;2024-01-30T20:36:33;87.70;43.40;
12542;PMS3003;6337;49.556;25.594;2024-01-30T20:39:50;69.50;36.85;
12542;PMS3003;6337;49.556;25.594;2024-01-30T20:42:33;91.38;41.85;
12542;PMS3003;6337;49.556;25.594;2024-01-30T20:45:04;94.10;45.10;
12542;PMS3003;6337;49.556;25.594;2024-01-30T20:47:34;97.55;46.03;
12542;PMS3003;6337;49.556;25.594;2024-01-30T20:50:44;109.82;51.28;
12542;PMS3003;6337;49.556;25.594;2024-01-30T20:53:37;87.78;45.95;
12542;PMS3003;6337;49.556;25.594;2024-01-30T20:56:22;119.00;51.47;
12542;PMS3003;6337;49.556;25.594;2024-01-30T21:25:58;121.20;50.22;
12542;PMS3003;6337;49.556;25.594;2024-01-30T21:34:19;105.88;48.85;
12542;PMS3003;6337;49.556;25.594;2024-01-30T21:39:28;212.05;77.10;
12542;PMS3003;6337;49.556;25.594;2024-01-30T21:42:15;100.13;42.17;
12542;PMS3003;6337;49.556;25.594;2024-01-30T21:44:45;69.10;36.33;
12542;PMS3003;6337;49.556;25.594;2024-01-30T21:50:18;63.45;31.30;
12542;PMS3003;6337;49.556;25.594;2024-01-30T21:55:37;140.20;56.92;
12542;PMS3003;6337;49.556;25.594;2024-01-30T21:58:13;136.60;55.67;
12542;PMS3003;6337;49.556;25.594;2024-01-30T22:01:06;89.18;42.47;
12542;PMS3003;6337;49.556;25.594;2024-01-30T22:04:02;99.90;43.72;
12542;PMS3003;6337;49.556;25.594;2024-01-30T22:06:46;75.03;36.67;
12542;PMS3003;6337;49.556;25.594;2024-01-30T22:09:30;58.13;31.23;
12542;PMS3003;6337;49.556;25.594;2024-01-30T22:15:57;60.08;29.08;
12542;PMS3003;6337;49.556;25.594;2024-01-30T22:21:09;73.85;35.40;
12542;PMS3003;6337;49.556;25.594;2024-01-30T22:23:51;86.07;40.10;
12542;PMS3003;6337;49.556;25.594;2024-01-30T22:26:20;89.85;41.05;
12542;PMS3003;6337;49.556;25.594;2024-01-30T22:28:48;76.80;36.90;
12542;PMS3003;6337;49.556;25.594;2024-01-30T22:31:23;87.05;40.30;
12542;PMS3003;6337;49.556;25.594;2024-01-30T22:33:57;98.38;43.53;
12542;PMS3003;6337;49.556;25.594;2024-01-30T22:36:26;93.68;40.40;
12542;PMS3003;6337;49.556;25.594;2024-01-30T22:38:55;75.82;36.55;
12542;PMS3003;6337;49.556;25.594;2024-01-30T22:41:24;70.30;34.30;
12542;PMS3003;6337;49.556;25.594;2024-01-30T22:43:54;75.57;35.65;
12542;PMS3003;6337;49.556;25.594;2024-01-30T22:49:48;70.70;33.72;
12542;PMS3003;6337;49.556;25.594;2024-01-30T22:52:40;60.88;31.92;
12542;PMS3003;6337;49.556;25.594;2024-01-30T22:58:32;83.07;38.72;
12542;PMS3003;6337;49.556;25.594;2024-01-30T23:01:19;99.10;43.08;
12542;PMS3003;6337;49.556;25.594;2024-01-30T23:03:55;96.10;40.92;
12542;PMS3003;6337;49.556;25.594;2024-01-30T23:06:44;102.15;42.92;
12542;PMS3003;6337;49.556;25.594;2024-01-30T23:09:26;127.53;50.60;
12542;PMS3003;6337;49.556;25.594;2024-01-30T23:11:54;148.32;58.58;
12542;PMS3003;6337;49.556;25.594;2024-01-30T23:14:38;140.25;57.22;
12542;PMS3003;6337;49.556;25.594;2024-01-30T23:17:11;123.30;53.47;
12542;PMS3003;6337;49.556;25.594;2024-01-30T23:22:53;96.93;46.28;
12542;PMS3003;6337;49.556;25.594;2024-01-30T23:25:33;113.15;53.33;
12542;PMS3003;6337;49.556;25.594;2024-01-30T23:28:10;153.48;59.90;
12542;PMS3003;6337;49.556;25.594;2024-01-30T23:33:50;125.43;57.42;
12542;PMS3003;6337;49.556;25.594;2024-01-30T23:36:45;112.05;48.72;
12542;PMS3003;6337;49.556;25.594;2024-01-30T23:39:17;184.85;62.35;
12542;PMS3003;6337;49.556;25.594;2024-01-30T23:41:56;216.77;79.80;
12542;PMS3003;6337;49.556;25.594;2024-01-30T23:44:29;346.55;111.60;
12542;PMS3003;6337;49.556;25.594;2024-01-30T23:47:01;345.50;123.55;
12542;PMS3003;6337;49.556;25.594;2024-01-30T23:49:44;338.77;115.18;
12542;PMS3003;6337;49.556;25.594;2024-01-30T23:55:39;241.68;87.88;
12542;PMS3003;6337;49.556;25.594;2024-01-30T23:58:18;191.15;73.90;
